createdAt,value
2023-04-10T00:02:18.060Z,4.72
2023-04-10T00:04:46.865Z,4.75
2023-04-10T00:07:15.720Z,4.97
2023-04-10T00:09:48.259Z,5.13
2023-04-10T00:12:16.762Z,5.40
2023-04-10T00:14:46.173Z,7.65
2023-04-10T00:17:14.741Z,4.97
2023-04-10T00:19:43.304Z,5.57
2023-04-10T00:22:13.786Z,5.45
2023-04-10T00:24:42.560Z,5.18
2023-04-10T00:27:11.615Z,5.22
2023-04-10T00:29:41.498Z,4.88
2023-04-10T00:32:10.769Z,5.15
2023-04-10T00:34:39.210Z,5.05
2023-04-10T00:37:11.789Z,5.75
2023-04-10T00:39:40.797Z,5.22
2023-04-10T00:42:10.951Z,5.43
2023-04-10T00:44:44.945Z,5.30
2023-04-10T00:47:14.717Z,4.97
2023-04-10T00:49:45.968Z,5.03
2023-04-10T00:52:16.014Z,5.18
2023-04-10T00:54:45.262Z,5.22
2023-04-10T00:57:13.825Z,5.45
2023-04-10T00:59:42.760Z,5.30
2023-04-10T01:02:13.646Z,5.30
2023-04-10T01:04:49.225Z,5.45
2023-04-10T01:07:21.554Z,5.18
2023-04-10T01:10:00.952Z,5.40
2023-04-10T01:12:48.783Z,5.72
2023-04-10T01:15:18.890Z,5.95
2023-04-10T01:17:51.830Z,5.63
2023-04-10T01:20:23.129Z,4.38
2023-04-10T01:22:54.845Z,5.40
2023-04-10T01:25:42.277Z,5.30
2023-04-10T01:28:19.978Z,5.78
2023-04-10T01:31:08.306Z,5.88
2023-04-10T01:33:40.697Z,5.53
2023-04-10T01:36:12.687Z,5.47
2023-04-10T01:38:44.476Z,6.05
2023-04-10T01:41:13.669Z,5.68
2023-04-10T01:43:49.091Z,5.70
2023-04-10T01:46:23.570Z,6.07
2023-04-10T01:48:53.179Z,5.45
2023-04-10T01:51:22.604Z,5.47
2023-04-10T01:53:53.230Z,5.93
2023-04-10T01:56:26.305Z,6.63
2023-04-10T01:58:56.108Z,5.72
2023-04-10T02:01:30.295Z,5.97
2023-04-10T02:04:03.648Z,5.63
2023-04-10T02:06:42.150Z,5.88
2023-04-10T02:09:14.227Z,5.35
2023-04-10T02:11:55.738Z,6.20
2023-04-10T02:14:26.045Z,6.63
2023-04-10T02:16:56.155Z,6.00
2023-04-10T02:19:26.372Z,6.00
2023-04-10T02:22:07.297Z,6.30
2023-04-10T02:24:36.030Z,6.65
2023-04-10T02:27:04.870Z,6.20
2023-04-10T02:29:38.311Z,6.20
2023-04-10T02:32:11.727Z,6.32
2023-04-10T02:34:43.776Z,5.85
2023-04-10T02:37:12.309Z,6.20
2023-04-10T02:39:41.740Z,5.63
2023-04-10T02:42:10.471Z,6.40
2023-04-10T02:44:44.841Z,6.45
2023-04-10T02:47:16.106Z,6.55
2023-04-10T02:49:50.694Z,5.95
2023-04-10T02:52:22.289Z,5.70
2023-04-10T02:54:50.664Z,5.45
2023-04-10T02:57:19.577Z,5.88
2023-04-10T02:59:51.974Z,5.63
2023-04-10T03:02:23.274Z,5.70
2023-04-10T03:04:53.862Z,5.18
2023-04-10T03:07:22.549Z,5.47
2023-04-10T03:09:50.882Z,5.65
2023-04-10T03:12:20.872Z,4.90
2023-04-10T03:14:52.551Z,5.72
2023-04-10T03:17:21.721Z,5.40
2023-04-10T03:19:51.279Z,5.35
2023-04-10T03:22:20.629Z,5.50
2023-04-10T03:24:49.876Z,5.05
2023-04-10T03:27:20.674Z,4.95
2023-04-10T03:29:51.357Z,5.53
2023-04-10T03:32:19.771Z,5.43
2023-04-10T03:34:49.526Z,5.13
2023-04-10T03:37:21.938Z,5.70
2023-04-10T03:39:50.844Z,5.30
2023-04-10T03:42:19.686Z,5.63
2023-04-10T03:44:51.708Z,4.75
2023-04-10T03:47:21.618Z,5.20
2023-04-10T03:49:52.879Z,5.30
2023-04-10T03:52:28.093Z,5.10
2023-04-10T03:54:57.773Z,5.40
2023-04-10T03:57:33.645Z,4.72
2023-04-10T04:00:06.750Z,4.78
2023-04-10T04:03:07.771Z,6.38
2023-04-10T04:05:55.592Z,4.45
2023-04-10T04:08:38.751Z,4.72
2023-04-10T04:11:46.167Z,4.68
2023-04-10T04:14:37.632Z,4.50
2023-04-10T04:17:46.236Z,3.85
2023-04-10T04:20:45.547Z,4.90
2023-04-10T04:23:22.365Z,4.90
2023-04-10T04:26:17.477Z,5.70
2023-04-10T04:29:07.848Z,5.43
2023-04-10T04:31:47.505Z,5.68
2023-04-10T04:34:38.622Z,5.05
2023-04-10T04:37:28.241Z,4.97
2023-04-10T04:40:27.873Z,4.57
2023-04-10T04:43:10.391Z,5.82
2023-04-10T04:46:05.669Z,5.13
2023-04-10T04:48:52.493Z,5.13
2023-04-10T04:51:47.888Z,5.28
2023-04-10T04:54:41.250Z,5.47
2023-04-10T04:57:18.550Z,5.75
2023-04-10T05:00:06.604Z,4.72
2023-04-10T05:03:29.553Z,5.30
2023-04-10T05:06:39.707Z,5.18
2023-04-10T05:09:19.046Z,4.43
2023-04-10T05:12:04.993Z,5.35
2023-04-10T05:14:53.174Z,5.30
2023-04-10T05:17:46.319Z,5.60
2023-04-10T05:20:41.162Z,5.35
2023-04-10T05:23:16.538Z,5.10
2023-04-10T05:25:52.508Z,5.25
2023-04-10T05:28:42.236Z,5.53
2023-04-10T05:31:32.014Z,5.75
2023-04-10T05:34:15.418Z,5.03
2023-04-10T05:37:03.409Z,4.90
2023-04-10T05:39:44.578Z,5.18
2023-04-10T05:42:48.845Z,5.25
2023-04-10T05:45:36.389Z,5.13
2023-04-10T05:48:19.884Z,5.60
2023-04-10T05:51:10.952Z,5.22
2023-04-10T05:53:58.638Z,5.03
2023-04-10T05:56:39.286Z,4.50
2023-04-10T05:59:33.175Z,5.20
2023-04-10T06:02:22.132Z,4.82
2023-04-10T06:04:53.884Z,4.78
2023-04-10T06:07:23.065Z,4.63
2023-04-10T06:09:54.575Z,4.90
2023-04-10T06:12:24.713Z,5.47
2023-04-10T06:14:56.073Z,5.18
2023-04-10T06:17:28.512Z,5.05
2023-04-10T06:20:01.036Z,4.78
2023-04-10T06:22:33.876Z,4.82
2023-04-10T06:25:05.298Z,4.93
2023-04-10T06:27:43.560Z,4.93
2023-04-10T06:30:12.495Z,4.88
2023-04-10T06:33:02.687Z,4.88
2023-04-10T06:35:36.654Z,4.85
2023-04-10T06:38:05.723Z,4.85
2023-04-10T06:40:44.704Z,2.75
2023-04-10T06:43:14.368Z,4.90
2023-04-10T06:45:43.109Z,4.65
2023-04-10T06:48:12.197Z,4.57
2023-04-10T06:50:42.060Z,4.38
2023-04-10T06:53:11.158Z,4.70
2023-04-10T06:55:43.901Z,4.43
2023-04-10T06:58:13.119Z,4.20
2023-04-10T07:00:44.918Z,4.53
2023-04-10T07:03:28.632Z,3.90
2023-04-10T07:05:57.601Z,4.07
2023-04-10T07:08:26.258Z,3.58
2023-04-10T07:10:58.455Z,4.35
2023-04-10T07:13:30.663Z,3.85
2023-04-10T07:16:00.683Z,4.10
2023-04-10T07:18:31.719Z,3.75
2023-04-10T07:21:00.819Z,5.15
2023-04-10T07:23:32.716Z,3.95
2023-04-10T07:26:01.757Z,3.40
2023-04-10T07:28:36.527Z,4.22
2023-04-10T07:33:46.875Z,4.13
2023-04-10T07:36:15.831Z,3.17
2023-04-10T07:38:44.237Z,3.25
2023-04-10T07:41:14.152Z,2.17
2023-04-10T07:43:43.541Z,3.55
2023-04-10T07:46:13.075Z,3.10
2023-04-10T07:48:44.345Z,4.05
2023-04-10T07:51:13.452Z,2.75
2023-04-10T07:53:43.444Z,4.25
2023-04-10T07:56:18.755Z,4.10
2023-04-10T07:58:48.507Z,3.50
2023-04-10T08:01:17.040Z,4.00
2023-04-10T08:03:48.323Z,2.90
2023-04-10T08:06:18.841Z,3.53
2023-04-10T08:08:48.407Z,3.67
2023-04-10T08:11:40.914Z,3.60
2023-04-10T08:14:09.209Z,3.58
2023-04-10T08:16:41.382Z,2.40
2023-04-10T08:19:12.004Z,3.45
2023-04-10T08:21:42.518Z,3.90
2023-04-10T08:24:11.550Z,3.03
2023-04-10T08:26:40.818Z,2.75
2023-04-10T08:29:09.281Z,2.33
2023-04-10T08:31:38.262Z,3.65
2023-04-10T08:34:11.489Z,1.98
2023-04-10T08:36:42.131Z,2.28
2023-04-10T08:39:12.643Z,2.50
2023-04-10T08:41:42.687Z,3.17
2023-04-10T08:44:18.835Z,2.33
2023-04-10T08:46:51.293Z,2.88
2023-04-10T08:49:28.834Z,2.85
2023-04-10T08:52:03.037Z,2.53
2023-04-10T08:54:34.487Z,5.05
2023-04-10T08:57:09.739Z,3.22
2023-04-10T08:59:39.738Z,2.25
2023-04-10T09:02:11.538Z,2.97
2023-04-10T09:04:40.449Z,3.00
2023-04-10T09:07:14.144Z,2.45
2023-04-10T09:09:42.840Z,2.13
2023-04-10T09:12:15.634Z,1.75
2023-04-10T09:14:49.727Z,2.80
2023-04-10T09:17:24.895Z,2.00
2023-04-10T09:19:56.661Z,2.85
2023-04-10T09:22:37.249Z,2.70
2023-04-10T09:25:07.206Z,2.60
2023-04-10T09:28:01.179Z,2.95
2023-04-10T09:30:36.975Z,2.00
2023-04-10T09:33:27.518Z,2.80
2023-04-10T09:36:01.037Z,2.55
2023-04-10T09:38:32.476Z,2.35
2023-04-10T09:41:09.666Z,2.35
2023-04-10T09:43:45.716Z,1.77
2023-04-10T09:46:28.640Z,2.55
2023-04-10T09:48:59.881Z,1.88
2023-04-10T09:51:34.650Z,2.15
2023-04-10T09:54:04.725Z,1.55
2023-04-10T09:56:41.029Z,2.58
2023-04-10T09:59:10.300Z,2.33
2023-04-10T10:01:41.240Z,2.60
2023-04-10T10:04:19.957Z,2.03
2023-04-10T10:07:03.660Z,2.38
2023-04-10T10:09:38.625Z,2.22
2023-04-10T10:12:13.724Z,2.60
2023-04-10T10:15:02.632Z,2.47
2023-04-10T10:17:44.888Z,2.85
2023-04-10T10:20:14.245Z,2.17
2023-04-10T10:22:45.902Z,1.23
2023-04-10T10:25:17.106Z,1.98
2023-04-10T10:27:47.545Z,1.92
2023-04-10T10:30:29.316Z,1.67
2023-04-10T10:33:18.644Z,2.17
2023-04-10T10:35:50.042Z,2.00
2023-04-10T10:38:19.565Z,1.80
2023-04-10T10:41:12.033Z,1.70
2023-04-10T10:43:41.091Z,1.63
2023-04-10T10:46:16.069Z,2.10
2023-04-10T10:48:59.464Z,2.38
2023-04-10T10:51:44.190Z,1.90
2023-04-10T10:54:33.657Z,1.45
2023-04-10T10:57:06.466Z,2.42
2023-04-10T10:59:44.613Z,2.10
2023-04-10T11:02:18.993Z,1.73
2023-04-10T11:04:48.567Z,1.92
2023-04-10T11:07:17.264Z,1.60
2023-04-10T11:09:57.052Z,1.92
2023-04-10T11:12:26.183Z,1.77
2023-04-10T11:15:05.579Z,2.83
2023-04-10T11:17:50.689Z,1.98
2023-04-10T11:20:27.809Z,1.40
2023-04-10T11:23:10.849Z,2.08
2023-04-10T11:25:54.386Z,2.28
2023-04-10T11:28:36.305Z,2.20
2023-04-10T11:31:24.351Z,2.25
2023-04-10T11:34:06.227Z,2.25
2023-04-10T11:36:44.047Z,1.67
2023-04-10T11:39:17.850Z,1.90
2023-04-10T11:41:47.178Z,1.40
2023-04-10T11:44:21.081Z,1.60
2023-04-10T11:46:51.263Z,1.70
2023-04-10T11:49:23.511Z,1.60
2023-04-10T11:51:52.350Z,0.82
2023-04-10T11:54:22.913Z,1.98
2023-04-10T11:57:09.190Z,1.45
2023-04-10T11:59:42.473Z,1.50
2023-04-10T12:02:17.155Z,1.48
2023-04-10T12:04:45.955Z,1.50
2023-04-10T12:07:14.498Z,1.83
2023-04-10T12:09:43.544Z,1.45
2023-04-10T12:12:12.049Z,4.65
2023-04-10T12:14:43.559Z,1.77
2023-04-10T12:17:17.415Z,1.70
2023-04-10T12:19:49.167Z,1.75
2023-04-10T12:22:18.502Z,1.67
2023-04-10T12:24:51.295Z,1.10
2023-04-10T12:27:27.851Z,1.67
2023-04-10T12:30:08.543Z,1.58
2023-04-10T12:32:37.394Z,1.85
2023-04-10T12:35:07.582Z,1.55
2023-04-10T12:37:54.512Z,1.48
2023-04-10T12:40:23.072Z,1.30
2023-04-10T12:42:51.769Z,1.60
2023-04-10T12:45:20.652Z,1.50
2023-04-10T12:47:53.650Z,1.42
2023-04-10T12:50:22.297Z,1.30
2023-04-10T12:53:04.276Z,1.52
2023-04-10T12:55:38.739Z,2.00
2023-04-10T12:58:19.969Z,1.23
2023-04-10T13:00:48.692Z,1.58
2023-04-10T13:03:30.832Z,1.40
2023-04-10T13:06:00.017Z,1.63
2023-04-10T13:08:32.268Z,2.05
2023-04-10T13:11:07.442Z,6.18
2023-04-10T13:13:46.302Z,1.50
2023-04-10T13:16:18.838Z,1.48
2023-04-10T13:18:47.488Z,1.40
2023-04-10T13:21:22.596Z,1.60
2023-04-10T13:23:52.287Z,1.15
2023-04-10T13:26:21.973Z,1.55
2023-04-10T13:28:50.767Z,1.50
2023-04-10T13:31:19.812Z,1.40
2023-04-10T13:33:50.638Z,1.17
2023-04-10T13:36:19.612Z,1.25
2023-04-10T13:38:49.530Z,1.10
2023-04-10T13:41:18.149Z,1.15
2023-04-10T13:43:46.449Z,1.50
2023-04-10T13:46:15.852Z,1.33
2023-04-10T13:48:46.536Z,1.40
2023-04-10T13:51:16.201Z,1.33
2023-04-10T13:53:47.284Z,1.27
2023-04-10T13:56:17.885Z,1.23
2023-04-10T13:58:49.928Z,1.40
2023-04-10T14:01:22.076Z,1.65
2023-04-10T14:03:54.260Z,2.47
2023-04-10T14:06:22.737Z,1.40
2023-04-10T14:08:54.590Z,1.30
2023-04-10T14:11:25.463Z,1.92
2023-04-10T14:13:54.100Z,1.70
2023-04-10T14:16:22.416Z,5.40
2023-04-10T14:18:51.999Z,3.65
2023-04-10T14:21:20.860Z,1.30
2023-04-10T14:23:49.698Z,1.20
2023-04-10T14:26:18.814Z,1.30
2023-04-10T14:28:47.088Z,1.35
2023-04-10T14:31:15.987Z,1.63
2023-04-10T14:33:44.589Z,1.23
2023-04-10T14:36:12.946Z,1.95
2023-04-10T14:38:42.551Z,1.38
2023-04-10T14:41:11.374Z,1.20
2023-04-10T14:43:43.054Z,1.70
2023-04-10T14:46:12.406Z,1.30
2023-04-10T14:48:42.213Z,1.20
2023-04-10T14:51:13.677Z,0.85
2023-04-10T14:53:46.777Z,1.00
2023-04-10T14:56:17.234Z,1.00
2023-04-10T14:58:47.122Z,1.20
2023-04-10T15:01:16.244Z,1.08
2023-04-10T15:03:49.086Z,1.30
2023-04-10T15:06:22.812Z,1.17
2023-04-10T15:08:54.292Z,0.73
2023-04-10T15:11:22.712Z,1.20
2023-04-10T15:13:51.015Z,1.02
2023-04-10T15:16:19.418Z,1.00
2023-04-10T15:18:51.260Z,0.80
2023-04-10T15:21:19.561Z,1.10
2023-04-10T15:23:48.281Z,0.90
2023-04-10T15:26:17.691Z,0.88
2023-04-10T15:28:48.141Z,1.08
2023-04-10T15:31:16.987Z,0.95
2023-04-10T15:33:46.226Z,0.98
2023-04-10T15:36:17.547Z,1.10
2023-04-10T15:38:49.926Z,1.25
2023-04-10T15:41:22.926Z,1.50
2023-04-10T15:43:53.839Z,2.10
2023-04-10T15:46:23.749Z,1.60
2023-04-10T15:48:52.364Z,1.50
2023-04-10T15:51:21.615Z,1.58
2023-04-10T15:53:49.911Z,1.08
2023-04-10T15:56:20.751Z,1.35
2023-04-10T15:58:52.305Z,0.77
2023-04-10T16:01:21.291Z,1.55
2023-04-10T16:03:58.210Z,1.02
2023-04-10T16:06:27.944Z,0.95
2023-04-10T16:08:56.612Z,1.27
2023-04-10T16:11:28.813Z,1.10
2023-04-10T16:16:30.585Z,1.15
2023-04-10T16:19:02.090Z,1.52
2023-04-10T16:21:33.027Z,1.17
2023-04-10T16:24:03.603Z,1.55
2023-04-10T16:26:35.174Z,1.35
2023-04-10T16:29:06.319Z,1.67
2023-04-10T16:31:35.514Z,1.35
2023-04-10T16:34:04.028Z,1.27
2023-04-10T16:36:35.602Z,4.30
2023-04-10T16:39:08.546Z,1.95
2023-04-10T16:41:40.657Z,1.55
2023-04-10T16:44:09.291Z,2.40
2023-04-10T16:46:38.145Z,1.73
2023-04-10T16:49:06.848Z,3.58
2023-04-10T16:51:37.924Z,1.05
2023-04-10T16:54:07.928Z,1.80
2023-04-10T16:56:36.321Z,1.42
2023-04-10T16:59:07.466Z,1.70
2023-04-10T17:01:39.735Z,1.60
2023-04-10T17:04:10.065Z,1.60
2023-04-10T17:06:38.559Z,1.55
2023-04-10T17:09:10.005Z,1.70
2023-04-10T17:11:40.859Z,1.53
2023-04-10T17:14:10.523Z,5.55
2023-04-10T17:16:40.035Z,1.80
2023-04-10T17:19:09.000Z,1.60
2023-04-10T17:21:39.654Z,2.03
2023-04-10T17:24:08.040Z,1.63
2023-04-10T17:26:37.102Z,2.17
2023-04-10T17:29:06.033Z,1.85
2023-04-10T17:31:37.124Z,1.80
2023-04-10T17:34:06.456Z,1.55
2023-04-10T17:36:37.097Z,1.90
2023-04-10T17:39:05.659Z,1.67
2023-04-10T17:41:37.010Z,1.63
2023-04-10T17:44:05.508Z,1.60
2023-04-10T17:46:34.708Z,1.90
2023-04-10T17:49:04.405Z,1.95
2023-04-10T17:51:34.921Z,1.90
2023-04-10T17:54:05.699Z,1.92
2023-04-10T17:56:36.587Z,2.25
2023-04-10T17:59:06.784Z,2.22
2023-04-10T18:01:36.390Z,1.95
2023-04-10T18:04:09.292Z,2.20
2023-04-10T18:06:40.946Z,2.60
2023-04-10T18:09:09.490Z,2.75
2023-04-10T18:11:40.969Z,2.72
2023-04-10T18:14:10.694Z,2.35
2023-04-10T18:16:41.495Z,2.30
2023-04-10T18:19:12.170Z,2.00
2023-04-10T18:21:42.711Z,1.90
2023-04-10T18:24:12.160Z,2.17
2023-04-10T18:26:42.908Z,2.10
2023-04-10T18:29:11.288Z,2.05
2023-04-10T18:31:40.788Z,4.05
2023-04-10T18:34:09.764Z,7.60
2023-04-10T18:36:42.182Z,8.65
2023-04-10T18:39:10.858Z,3.47
2023-04-10T18:41:40.266Z,2.75
2023-04-10T18:44:10.199Z,2.10
2023-04-10T18:46:46.316Z,2.22
2023-04-10T18:49:17.024Z,1.80
2023-04-10T18:51:47.897Z,2.22
2023-04-10T18:54:17.963Z,2.30
2023-04-10T18:56:48.537Z,2.50
2023-04-10T18:59:16.717Z,3.05
2023-04-10T19:01:45.144Z,2.80
2023-04-10T19:04:16.784Z,2.53
2023-04-10T19:06:46.266Z,2.53
2023-04-10T19:09:16.465Z,2.05
2023-04-10T19:11:45.505Z,2.92
2023-04-10T19:14:14.166Z,3.47
2023-04-10T19:16:42.487Z,2.63
2023-04-10T19:19:11.505Z,2.38
2023-04-10T19:21:40.905Z,2.47
2023-04-10T19:24:13.897Z,2.78
2023-04-10T19:26:42.305Z,2.38
2023-04-10T19:29:13.546Z,1.55
2023-04-10T19:31:43.402Z,1.27
2023-04-10T19:34:12.485Z,0.90
2023-04-10T19:36:41.856Z,1.20
2023-04-10T19:39:10.438Z,1.55
2023-04-10T19:41:42.624Z,1.40
2023-04-10T19:44:11.022Z,1.40
2023-04-10T19:46:40.209Z,1.70
2023-04-10T19:49:08.806Z,2.15
2023-04-10T19:51:38.615Z,2.15
2023-04-10T19:54:06.957Z,1.60
2023-04-10T19:56:37.786Z,2.40
2023-04-10T19:59:09.258Z,1.40
2023-04-10T20:01:38.973Z,1.88
2023-04-10T20:04:07.899Z,1.42
2023-04-10T20:06:41.658Z,1.30
2023-04-10T20:09:10.682Z,1.40
2023-04-10T20:11:39.095Z,1.45
2023-04-10T20:14:08.432Z,1.35
2023-04-10T20:16:40.965Z,1.08
2023-04-10T20:19:10.061Z,1.30
2023-04-10T20:21:38.715Z,1.30
2023-04-10T20:24:09.019Z,1.08
2023-04-10T20:26:37.972Z,1.55
2023-04-10T20:29:06.512Z,1.10
2023-04-10T20:31:35.847Z,1.15
2023-04-10T20:34:04.885Z,1.45
2023-04-10T20:36:35.795Z,1.23
2023-04-10T20:39:04.668Z,1.00
2023-04-10T20:41:34.886Z,1.40
2023-04-10T20:44:04.171Z,1.05
2023-04-10T20:46:32.682Z,1.75
2023-04-10T20:49:01.700Z,1.25
2023-04-10T20:51:37.202Z,1.55
2023-04-10T20:54:07.057Z,1.40
2023-04-10T20:56:43.694Z,1.25
2023-04-10T20:59:13.317Z,1.35
2023-04-10T21:01:45.035Z,1.30
2023-04-10T21:04:13.524Z,1.73
2023-04-10T21:06:45.645Z,1.42
2023-04-10T21:09:13.983Z,1.00
2023-04-10T21:11:44.601Z,1.08
2023-04-10T21:14:16.152Z,1.20
2023-04-10T21:16:45.930Z,0.98
2023-04-10T21:19:14.312Z,1.10
2023-04-10T21:21:45.313Z,0.70
2023-04-10T21:24:13.876Z,0.80
2023-04-10T21:26:43.030Z,0.70
2023-04-10T21:29:11.807Z,1.73
2023-04-10T21:31:40.394Z,0.47
2023-04-10T21:34:11.333Z,0.93
2023-04-10T21:36:40.367Z,0.70
2023-04-10T21:39:10.820Z,0.93
2023-04-10T21:41:40.887Z,0.70
2023-04-10T21:44:09.920Z,0.55
2023-04-10T21:46:45.184Z,0.90
2023-04-10T21:49:14.069Z,0.93
2023-04-10T21:51:45.713Z,0.60
2023-04-10T21:54:14.114Z,0.70
2023-04-10T21:56:43.236Z,0.60
2023-04-10T21:59:12.039Z,0.57
2023-04-10T22:01:41.699Z,0.50
2023-04-10T22:04:12.747Z,0.40
2023-04-10T22:06:42.528Z,0.57
2023-04-10T22:09:13.658Z,2.05
2023-04-10T22:11:42.474Z,0.30
2023-04-10T22:14:17.154Z,0.65
2023-04-10T22:16:47.876Z,0.50
2023-04-10T22:19:20.350Z,0.57
2023-04-10T22:21:50.178Z,0.80
2023-04-10T22:24:21.926Z,0.60
2023-04-10T22:26:50.320Z,0.50
2023-04-10T22:29:22.253Z,0.80
2023-04-10T22:31:50.898Z,0.63
2023-04-10T22:34:19.796Z,0.80
2023-04-10T22:36:49.961Z,0.60
2023-04-10T22:39:20.403Z,0.70
2023-04-10T22:41:52.016Z,0.60
2023-04-10T22:44:20.809Z,1.00
2023-04-10T22:46:49.580Z,0.80
2023-04-10T22:49:18.015Z,0.95
2023-04-10T22:51:46.858Z,0.93
2023-04-10T22:54:15.920Z,0.75
2023-04-10T22:56:45.052Z,0.90
2023-04-10T22:59:13.741Z,0.85
2023-04-10T23:01:42.208Z,1.08
2023-04-10T23:04:11.716Z,0.80
2023-04-10T23:06:42.872Z,0.90
2023-04-10T23:09:12.531Z,0.73
2023-04-10T23:11:41.996Z,1.10
2023-04-10T23:14:12.929Z,0.90
2023-04-10T23:16:41.421Z,0.68
2023-04-10T23:19:10.735Z,0.75
2023-04-10T23:21:41.262Z,1.10
2023-04-10T23:24:09.727Z,1.00
2023-04-10T23:26:41.059Z,1.15
2023-04-10T23:29:09.615Z,1.17
2023-04-10T23:31:42.645Z,1.47
2023-04-10T23:34:11.225Z,1.20
2023-04-10T23:36:41.870Z,0.85
2023-04-10T23:39:11.367Z,0.90
2023-04-10T23:41:45.042Z,0.82
2023-04-10T23:44:13.539Z,0.70
2023-04-10T23:46:41.997Z,1.00
2023-04-10T23:49:13.485Z,0.88
2023-04-10T23:51:44.932Z,0.87
2023-04-10T23:54:13.796Z,1.02
2023-04-10T23:56:42.779Z,0.95
2023-04-10T23:59:16.873Z,0.82
